Weather observations for the past three days for
Nausori International Airport
Metric (Imperial)
Date Time (+12) Wind (kph) Vis. (km) Weather Sky Cond. Temperature (ºC) Relative Humidity Wind Chill (°C) Heat Index (°C) Pressure Precipitation (cm)
Air Dwpt 6 hour altimeter (cm) sea level (mb) 1 hr 3 hr 6 hr
Max. Min.
08 06:00 Vrbl 4 0.00 Partly Cloudy SCT024 21 20 94% 0 0.0
08 05:00 Vrbl 4 0.00 Partly Cloudy SCT024 21 21 100% 0 0.0
08 04:00 Vrbl 4 0.00 Partly Cloudy SCT024 21 21 100% 0 0.0
08 03:00 Vrbl 4 0.00 Partly Cloudy SCT024 21 21 100% 0 0.0
08 02:00 Vrbl 4 0.00 Partly Cloudy SCT024 21 21 100% 0 0.0
08 01:00 Vrbl 4 0.00 Partly Cloudy SCT024 22 22 100% 0 0.0
08 00:00 Calm 0.00 Partly Cloudy SCT024 23 22 94% 0 0.0
07 23:00 Vrbl 4 0.00 Partly Cloudy SCT024 23 22 94% 0 0.0
07 22:00 Vrbl 4 0.00 Partly Cloudy SCT024 22 22 100% 0 0.0
07 21:00 Vrbl 4 0.00 Partly Cloudy SCT024 24 21 83% 24 0 0.0
07 20:00 E 7 0.00 Partly Cloudy SCT024 24 21 83% 24 0 0.0
07 19:00 E 7 0.00 Partly Cloudy SCT024 25 22 83% 26 0 0.0
07 18:00 E 6 0.00 Partly Cloudy SCT024 25 22 83% 26 0 0.0
07 17:00 SE 15 0.00 Partly Cloudy SCT024 26 22 79% 28 0 0.0
07 16:00 SE 17 0.00 Partly Cloudy SCT024 27 22 74% 29 0 0.0
07 15:00 SE 17 0.00 Partly Cloudy SCT024 28 24 79% 32 0 0.0
07 14:00 SE 13 0.00 Partly Cloudy SCT024 27 22 74% 29 0 0.0
07 13:00 E 13 0.00 Partly Cloudy SCT024 29 23 70% 33 0 0.0
07 12:00 E 15 0.00 Partly Cloudy SCT024 29 22 66% 32 0 0.0
07 11:00 SE 15 0.00 Partly Cloudy SCT024 27 21 70% 29 0 0.0
07 10:00 E 15 0.00 Partly Cloudy SCT026 27 22 74% 29 0 0.0
07 09:00 E 19 0.00 A Few Clouds FEW026 28 22 70% 31 0 0.0
07 08:00 E 9 0.00 A Few Clouds FEW020 27 22 74% 29 0 0.0
07 07:00 Vrbl 6 0.00 Partly Cloudy SCT020 24 21 83% 24 0 0.0
07 06:00 Vrbl 4 0.00 Partly Cloudy SCT020 24 23 94% 23 0 0.0
07 05:00 Calm 0.00 Partly Cloudy SCT020 23 22 94% 0 0.0
07 04:00 E 9 0.00 Partly Cloudy SCT020 24 22 89% 24 0 0.0
07 03:00 SE 7 0.00 Partly Cloudy SCT020 24 22 89% 24 0 0.0
07 02:00 SE 9 0.00 Partly Cloudy SCT020 25 23 89% 26 0 0.0
07 01:00 SE 13 0.00 Partly Cloudy SCT020 25 23 89% 26 0 0.0
07 00:00 SE 17 0.00 Partly Cloudy SCT020 26 23 84% 28 0 0.0
06 23:00 SE 11 0.00 Mostly Cloudy BKN020 25 22 83% 26 0 0.0
06 22:00 SE 15 0.00 Mostly Cloudy BKN020 25 23 89% 26 0 0.0
06 21:00 Vrbl 4 0.00 Mostly Cloudy BKN020 24 23 94% 23 0 0.0
06 20:00 Vrbl 4 0.00 Mostly Cloudy BKN020 24 23 94% 23 0 0.0
06 19:00 Vrbl 4 0.00 Light Showers Rain BKN020 24 23 94% 23 0 0.0
06 18:00 Vrbl 4 0.00 Mostly Cloudy BKN020 24 23 94% 23 0 0.0
06 17:00 E 15 0.00 Light Showers Rain BKN020 24 23 94% 23 0 0.0
06 16:00 SE 15 0.00 Mostly Cloudy BKN022 26 21 74% 27 0 0.0
06 15:00 SE 17 0.00 Light Showers Rain BKN022 26 22 79% 28 0 0.0
06 14:00 SE 20 0.00 Mostly Cloudy BKN025 27 23 79% 30 0 0.0
06 13:00 SE 24 0.00 Mostly Cloudy BKN025 28 23 74% 31 0 0.0
06 12:00 SE 24 0.00 Mostly Cloudy BKN025 28 23 74% 31 0 0.0
06 11:00 E 20 0.00 Mostly Cloudy BKN025 28 23 74% 31 0 0.0
06 10:00 E 17 0.00 Partly Cloudy SCT025 28 23 74% 31 0 0.0
06 09:00 SE 20 0.00 Partly Cloudy SCT025 28 23 74% 31 0 0.0
06 08:00 Vrbl 4 0.00 Mostly Cloudy FEW025 BKN045 25 23 89% 26 0 0.0
06 07:00 Vrbl 4 0.00 Mostly Cloudy FEW022 BKN042 22 22 100% 0 0.0
06 06:00 Vrbl 4 0.00 Partly Cloudy FEW022 SCT042 22 22 100% 0 0.0
06 05:00 Vrbl 4 0.00 Partly Cloudy SCT022 SCT042 22 22 100% 0 0.0
06 04:00 Vrbl 4 0.00 Partly Cloudy SCT022 SCT042 22 22 100% 0 0.0
06 03:00 Vrbl 4 0.00 Partly Cloudy SCT022 SCT042 23 22 94% 0 0.0
06 02:00 Calm 0.00 Mostly Cloudy BKN028 22 22 100% 0 0.0
06 01:00 Calm 0.00 Mostly Cloudy BKN028 23 22 94% 0 0.0
06 00:00 Calm 0.00 Mostly Cloudy BKN028 23 22 94% 0 0.0
05 23:00 Calm 0.00 A Few Clouds FEW028 22 22 100% 0 0.0
05 22:00 Vrbl 4 0.00 A Few Clouds FEW028 22 22 100% 0 0.0
05 21:00 Vrbl 4 0.00 A Few Clouds FEW028 23 22 94% 0 0.0
05 20:00 Vrbl 4 0.00 A Few Clouds FEW028 23 23 100% 0 0.0
05 19:00 Vrbl 6 0.00 A Few Clouds FEW028 24 23 94% 23 0 0.0
05 18:00 SE 7 0.00 A Few Clouds FEW030 25 22 83% 26 0 0.0
05 17:00 SE 7 0.00 A Few Clouds FEW030 27 22 74% 29 0 0.0
05 16:00 SE 9 0.00 A Few Clouds FEW030 28 22 70% 31 0 0.0
05 15:00 SE 11 0.00 Partly Cloudy SCT030 28 22 70% 31 0 0.0
05 14:00 E 13 0.00 Partly Cloudy SCT030 29 22 66% 32 0 0.0
05 13:00 E 13 0.00 Mostly Cloudy BKN028 29 22 66% 32 0 0.0
05 12:00 E 9 0.00 Mostly Cloudy BKN028 29 22 66% 32 0 0.0
05 11:00 SE 9 0.00 Mostly Cloudy BKN028 27 22 74% 29 0 0.0
05 10:00 SE 9 0.00 Partly Cloudy SCT022 27 22 74% 29 0 0.0
05 09:00 Calm 0.00 Partly Cloudy SCT022 26 23 84% 28 0 0.0
05 08:00 Vrbl 4 0.00 Partly Cloudy SCT022 23 22 94% 0 0.0
05 07:00 Vrbl 4 0.00 A Few Clouds FEW020 21 21 100% 0 0.0
Date Time (+12) Wind (kph) Vis. (km) Weather Sky Cond. Air Dwpt Max. Min. Relative Humidity Wind Chill (°C) Heat Index (°C) altimeter (cm) sea level (mb) 1 hr 3 hr 6 hr
6 hour
Temperature (ºC) Pressure Precipitation (cm)